Time;durP1;ratioP1;P1;durP2;ratioP2;P2;SDS_P1;SDS_P2;PMS_P1;PMS_P2;Temp;Humidity;BMP_temperature;BMP_pressure;BME280_temperature;BME280_humidity;BME280_pressure;Samples;Min_cycle;Max_cycle;Signal;HPM_P1;HPM_P2
2021/12/02 00:01:42;;;;;;;2.47;0.90;;;7.50;1.00;;;;;;4992163;28;20209;-74
2021/12/02 00:04:08;;;;;;;1.43;1.00;;;7.50;1.00;;;;;;4992887;28;20185;-74
2021/12/02 00:06:39;;;;;;;4.33;1.23;;;7.50;1.00;;;;;;4993353;28;20642;-77
2021/12/02 00:09:05;;;;;;;0.90;0.90;;;7.50;1.00;;;;;;4993781;28;20181;-77
2021/12/02 00:11:31;;;;;;;1.83;1.00;;;;;;;;;;4993145;28;20429;-77
2021/12/02 00:13:59;;;;;;;2.00;0.87;;;7.50;1.00;;;;;;4992695;28;20196;-77
2021/12/02 00:16:39;;;;;;;3.20;1.23;;;7.50;1.00;;;;;;4992328;28;20429;-77
2021/12/02 00:21:53;;;;;;;2.70;1.00;;;7.40;1.00;;;;;;4996211;28;20428;-77
2021/12/02 00:24:22;;;;;;;14.83;1.33;;;7.50;1.00;;;;;;4996810;28;20417;-77
2021/12/02 00:26:49;;;;;;;1.37;1.23;;;7.50;1.00;;;;;;4996585;28;20448;-78
2021/12/02 00:29:18;;;;;;;8.30;1.80;;;7.50;1.00;;;;;;4996244;28;20985;-77
2021/12/02 00:31:46;;;;;;;1.57;1.30;;;7.50;1.00;;;;;;4995979;28;20421;-77
2021/12/02 00:34:12;;;;;;;3.00;1.33;;;7.40;1.00;;;;;;4986154;28;20497;-77
2021/12/02 00:36:39;;;;;;;1.90;1.07;;;7.30;1.00;;;;;;4990395;28;20800;-77
2021/12/02 00:39:11;;;;;;;2.60;1.00;;;7.30;1.00;;;;;;4987431;28;20823;-77
2021/12/02 00:41:37;;;;;;;2.17;1.20;;;7.30;1.00;;;;;;4995649;28;20504;-77
2021/12/02 00:44:03;;;;;;;4.63;1.10;;;7.30;1.00;;;;;;4996624;28;20414;-77
2021/12/02 00:46:33;;;;;;;2.30;0.87;;;;;;;;;;4995595;28;20428;-77
2021/12/02 00:49:03;;;;;;;2.30;1.43;;;7.20;1.00;;;;;;4996138;28;20811;-77
2021/12/02 00:51:31;;;;;;;1.10;1.00;;;7.20;1.00;;;;;;4996313;28;20475;-74
2021/12/02 00:54:04;;;;;;;1.40;1.17;;;7.20;1.00;;;;;;4995239;28;20806;-75
2021/12/02 00:56:30;;;;;;;4.40;0.90;;;7.20;1.00;;;;;;5005327;28;20424;-75
2021/12/02 00:58:58;;;;;;;8.90;1.20;;;7.20;1.00;;;;;;4995947;28;20642;-75
2021/12/02 01:01:26;;;;;;;1.37;0.60;;;7.20;1.00;;;;;;4995749;28;20461;-75
2021/12/02 01:03:58;;;;;;;10.37;1.53;;;7.10;1.00;;;;;;4995433;28;20425;-75
2021/12/02 01:06:25;;;;;;;0.80;0.80;;;7.10;1.00;;;;;;4996094;28;20412;-74
2021/12/02 01:08:51;;;;;;;1.20;0.90;;;;;;;;;;4995438;28;20530;-75
2021/12/02 01:11:17;;;;;;;8.07;1.60;;;7.20;1.00;;;;;;4995769;28;20926;-75
2021/12/02 01:13:44;;;;;;;2.20;1.00;;;7.10;1.00;;;;;;4995312;28;20905;-75
2021/12/02 01:16:09;;;;;;;4.40;1.30;;;7.10;1.00;;;;;;4995278;28;20432;-75
2021/12/02 01:18:35;;;;;;;0.93;0.83;;;7.10;1.00;;;;;;4995149;28;20429;-75
2021/12/02 01:21:02;;;;;;;1.00;0.80;;;7.10;1.00;;;;;;4995696;28;20170;-75
2021/12/02 01:23:30;;;;;;;2.00;0.90;;;7.10;1.00;;;;;;4995581;28;20193;-74
2021/12/02 01:26:05;;;;;;;0.77;0.70;;;7.00;1.00;;;;;;4995486;28;21090;-75
2021/12/02 01:28:32;;;;;;;0.70;0.70;;;7.10;1.00;;;;;;4995306;28;20423;-75
2021/12/02 01:30:58;;;;;;;0.80;0.80;;;7.00;1.00;;;;;;4995316;28;20463;-75
2021/12/02 01:33:28;;;;;;;0.70;0.70;;;6.90;1.00;;;;;;4994865;28;20483;-75
2021/12/02 01:36:04;;;;;;;1.37;0.50;;;6.90;1.00;;;;;;4995271;28;20505;-75
2021/12/02 01:38:31;;;;;;;1.43;0.83;;;6.80;1.00;;;;;;4995716;28;20562;-77
2021/12/02 01:40:57;;;;;;;0.60;0.60;;;6.70;1.00;;;;;;4993998;28;20789;-77
2021/12/02 01:43:41;;;;;;;0.60;0.60;;;6.70;1.00;;;;;;4994810;28;20431;-78
2021/12/02 01:46:08;;;;;;;0.77;0.70;;;;;;;;;;4994952;28;20432;-77
2021/12/02 01:48:38;;;;;;;0.60;0.60;;;6.70;1.00;;;;;;4994806;28;20896;-78
2021/12/02 01:51:07;;;;;;;0.73;0.67;;;6.70;1.00;;;;;;4995139;28;20464;-77
2021/12/02 01:53:37;;;;;;;0.50;0.50;;;6.80;1.00;;;;;;4994610;28;20448;-77
2021/12/02 01:56:14;;;;;;;0.67;0.60;;;6.80;1.00;;;;;;5005520;28;20416;-77
2021/12/02 01:58:51;;;;;;;0.80;0.80;;;6.80;1.00;;;;;;4995197;28;20436;-77
2021/12/02 02:01:23;;;;;;;3.10;0.70;;;6.70;1.00;;;;;;4994386;28;20436;-77
2021/12/02 02:03:51;;;;;;;1.33;0.80;;;6.70;1.00;;;;;;4994380;28;20424;-77
2021/12/02 02:07:06;;;;;;;0.60;0.60;;;6.60;1.00;;;;;;4994920;28;20503;-77
2021/12/02 02:09:33;;;;;;;3.70;0.67;;;6.60;1.00;;;;;;4993532;28;20473;-75
2021/12/02 02:12:02;;;;;;;1.10;1.00;;;6.70;1.00;;;;;;4993641;28;20840;-75
2021/12/02 02:14:29;;;;;;;0.73;0.67;;;6.70;1.00;;;;;;4994016;28;20425;-75
2021/12/02 02:16:56;;;;;;;3.30;0.60;;;6.80;1.00;;;;;;4994373;28;20420;-75
2021/12/02 02:19:23;;;;;;;0.70;0.70;;;;;;;;;;4994138;28;20439;-75
2021/12/02 02:21:49;;;;;;;1.10;0.70;;;;;;;;;;4994109;28;20444;-74
2021/12/02 02:24:17;;;;;;;1.13;0.70;;;;;;;;;;4994345;28;20932;-75
2021/12/02 02:26:43;;;;;;;0.63;0.50;;;6.80;1.00;;;;;;4994096;28;20444;-75
2021/12/02 02:29:11;;;;;;;0.70;0.50;;;6.80;1.00;;;;;;4994073;28;20555;-75
2021/12/02 02:31:41;;;;;;;0.60;0.60;;;6.80;1.00;;;;;;4994235;28;20428;-75
2021/12/02 02:34:06;;;;;;;0.63;0.63;;;11.20;1.00;;;;;;4994120;28;20431;-75
2021/12/02 02:36:34;;;;;;;4.30;0.67;;;6.80;1.00;;;;;;4993746;28;20684;-75
2021/12/02 02:39:02;;;;;;;0.63;0.50;;;6.80;1.00;;;;;;4994584;28;20260;-78
2021/12/02 02:41:33;;;;;;;0.60;0.60;;;6.80;1.00;;;;;;4994266;28;20416;-78
2021/12/02 02:43:59;;;;;;;0.60;0.57;;;6.80;1.00;;;;;;4993209;28;20433;-78
2021/12/02 02:46:36;;;;;;;0.67;0.67;;;6.70;1.00;;;;;;4992797;28;20181;-78
2021/12/02 02:49:05;;;;;;;0.97;0.63;;;6.70;1.00;;;;;;4994004;28;20459;-78
2021/12/02 02:51:32;;;;;;;1.20;0.90;;;6.70;1.00;;;;;;4993901;28;20845;-78
2021/12/02 02:54:05;;;;;;;0.70;0.70;;;6.60;1.00;;;;;;4993852;28;20441;-78
2021/12/02 02:56:34;;;;;;;5.83;0.53;;;6.60;1.00;;;;;;4994570;28;20409;-78
2021/12/02 03:04:17;;;;;;;0.50;0.50;;;6.50;1.00;;;;;;4993648;28;20425;-79
2021/12/02 03:07:13;;;;;;;0.90;0.60;;;6.50;1.00;;;;;;4993569;28;20446;-78
2021/12/02 03:12:17;;;;;;;0.60;0.50;;;6.40;1.00;;;;;;4994411;28;20421;-78
2021/12/02 03:17:11;;;;;;;0.80;0.50;;;6.50;1.00;;;;;;4993691;28;20440;-78
2021/12/02 03:19:44;;;;;;;1.40;0.60;;;6.40;1.00;;;;;;4993509;28;20421;-78
2021/12/02 03:22:14;;;;;;;1.73;0.80;;;6.30;1.00;;;;;;4993407;28;20200;-78
2021/12/02 03:24:40;;;;;;;1.23;0.60;;;6.20;1.00;;;;;;4993587;28;20435;-78
2021/12/02 03:27:06;;;;;;;9.80;0.50;;;;;;;;;;4993351;28;20821;-78
2021/12/02 03:29:32;;;;;;;1.50;0.60;;;6.30;1.00;;;;;;4993430;28;20193;-78
2021/12/02 03:31:58;;;;;;;5.47;0.80;;;6.30;1.00;;;;;;4993443;28;20419;-78
2021/12/02 03:34:24;;;;;;;0.50;0.50;;;;;;;;;;4992769;28;20421;-79
2021/12/02 03:36:50;;;;;;;7.70;0.80;;;;;;;;;;4993233;28;20546;-78
2021/12/02 03:39:16;;;;;;;3.20;0.50;;;6.30;1.00;;;;;;4993353;28;20428;-75
2021/12/02 03:41:42;;;;;;;0.50;0.50;;;6.20;1.00;;;;;;4993355;28;20423;-75
2021/12/02 03:44:08;;;;;;;4.40;0.47;;;6.20;1.00;;;;;;4993050;28;20181;-75
2021/12/02 03:46:34;;;;;;;2.70;0.70;;;6.20;1.00;;;;;;4993116;28;20214;-75
2021/12/02 03:49:00;;;;;;;1.00;1.00;;;6.30;1.00;;;;;;4992755;28;20464;-75
2021/12/02 03:51:26;;;;;;;1.13;0.83;;;6.20;1.00;;;;;;4993329;28;20500;-75
2021/12/02 03:53:52;;;;;;;0.60;0.60;;;6.20;1.00;;;;;;4992460;28;20818;-78
2021/12/02 03:56:18;;;;;;;0.77;0.47;;;;;;;;;;4999759;28;20428;-78
2021/12/02 03:58:46;;;;;;;2.83;0.93;;;6.20;1.00;;;;;;4997017;28;20186;-78
2021/12/02 04:01:13;;;;;;;2.20;0.60;;;6.20;1.00;;;;;;4996508;28;20432;-78
2021/12/02 04:03:39;;;;;;;0.70;0.70;;;;;;;;;;4997038;28;20781;-78
2021/12/02 04:06:06;;;;;;;1.40;0.80;;;6.20;1.00;;;;;;4996824;28;20417;-78
2021/12/02 04:16:39;;;;;;;0.70;0.50;;;6.10;1.00;;;;;;4996274;28;20919;-75
2021/12/02 04:19:06;;;;;;;1.40;0.50;;;6.10;1.00;;;;;;4996348;28;20777;-75
2021/12/02 04:21:33;;;;;;;0.70;0.60;;;6.10;1.00;;;;;;4996840;28;20420;-75
2021/12/02 04:23:59;;;;;;;0.70;0.60;;;6.10;1.00;;;;;;4996547;28;20793;-75
2021/12/02 04:26:25;;;;;;;0.47;0.47;;;;;;;;;;4995146;28;20797;-75
2021/12/02 04:28:51;;;;;;;0.63;0.50;;;6.10;1.00;;;;;;4995910;28;20895;-75
2021/12/02 04:31:17;;;;;;;1.13;0.70;;;6.10;1.00;;;;;;4996639;28;20511;-75
2021/12/02 04:33:42;;;;;;;0.50;0.50;;;;;;;;;;4996517;28;20178;-75
2021/12/02 04:36:08;;;;;;;2.63;0.83;;;6.10;1.00;;;;;;4996597;28;20196;-75
2021/12/02 04:38:34;;;;;;;0.80;0.60;;;;;;;;;;4996286;28;20429;-78
2021/12/02 04:41:00;;;;;;;2.13;0.70;;;;;;;;;;4995258;28;20280;-78
2021/12/02 04:43:26;;;;;;;1.47;0.90;;;6.00;1.00;;;;;;4995701;28;20420;-78
2021/12/02 04:45:53;;;;;;;0.90;0.70;;;6.00;1.00;;;;;;4996395;28;20425;-78
2021/12/02 04:48:19;;;;;;;1.77;0.70;;;6.00;1.00;;;;;;4995953;28;20185;-78
2021/12/02 04:50:46;;;;;;;5.07;0.80;;;5.90;1.00;;;;;;4996493;28;20954;-78
2021/12/02 04:53:16;;;;;;;4.53;0.50;;;5.20;1.00;;;;;;4994663;28;20463;-78
2021/12/02 04:55:42;;;;;;;2.10;1.43;;;;;;;;;;4999358;28;20428;-78
2021/12/02 04:58:08;;;;;;;1.27;0.70;;;;;;;;;;4995811;28;20416;-78
2021/12/02 05:00:34;;;;;;;1.80;0.70;;;5.80;1.00;;;;;;4995749;28;20420;-78
2021/12/02 05:03:00;;;;;;;4.50;0.70;;;5.80;1.00;;;;;;4996076;28;20892;-78
2021/12/02 05:05:26;;;;;;;1.30;0.60;;;;;;;;;;4995804;28;20421;-78
2021/12/02 05:07:55;;;;;;;2.00;0.80;;;;;;;;;;4995254;28;20405;-78
2021/12/02 05:10:22;;;;;;;1.70;0.65;;;5.80;1.00;;;;;;4995662;28;20820;-75
2021/12/02 05:12:48;;;;;;;7.40;0.87;;;5.80;1.00;;;;;;4995713;28;20188;-75
2021/12/02 05:15:14;;;;;;;1.57;0.80;;;5.80;1.00;;;;;;4995485;28;20962;-75
2021/12/02 05:17:40;;;;;;;2.20;0.60;;;5.70;1.00;;;;;;4995610;28;20424;-75
2021/12/02 05:20:07;;;;;;;3.43;0.70;;;5.80;1.00;;;;;;4995591;28;20832;-75
2021/12/02 05:22:33;;;;;;;2.53;0.83;;;;;;;;;;4995547;28;20424;-75
2021/12/02 05:24:59;;;;;;;3.80;0.60;;;5.70;1.00;;;;;;4995969;28;20416;-78
2021/12/02 05:27:25;;;;;;;0.50;0.50;;;;;;;;;;4995250;28;20424;-79
2021/12/02 05:29:51;;;;;;;0.70;0.60;;;;;;;;;;4995160;28;20464;-78
2021/12/02 05:32:17;;;;;;;1.17;0.60;;;;;;;;;;4995452;28;20405;-78
2021/12/02 05:34:48;;;;;;;0.93;0.67;;;;;;;;;;4995411;28;20836;-77
2021/12/02 05:37:15;;;;;;;0.70;0.70;;;;;;;;;;4995091;28;20413;-77
2021/12/02 05:39:40;;;;;;;6.93;0.90;;;5.70;1.00;;;;;;4994740;28;20440;-77
2021/12/02 05:42:06;;;;;;;4.87;1.10;;;5.70;1.00;;;;;;4995376;28;20424;-78
2021/12/02 05:44:32;;;;;;;4.20;0.73;;;5.70;1.00;;;;;;4995347;28;20665;-77
2021/12/02 05:46:58;;;;;;;4.20;0.70;;;5.70;1.00;;;;;;4989343;28;20177;-77
2021/12/02 05:49:27;;;;;;;1.07;0.73;;;5.60;1.00;;;;;;4993601;28;20668;-78
2021/12/02 05:51:53;;;;;;;0.90;0.50;;;5.70;1.00;;;;;;4995010;28;20174;-78
2021/12/02 05:54:19;;;;;;;3.00;1.30;;;5.60;1.00;;;;;;4994484;28;20448;-78
2021/12/02 05:56:45;;;;;;;3.63;0.53;;;5.60;1.00;;;;;;4997565;28;20712;-79
2021/12/02 05:59:11;;;;;;;0.97;0.63;;;5.60;1.00;;;;;;4994665;28;20182;-78
2021/12/02 06:01:41;;;;;;;1.87;0.70;;;5.60;1.00;;;;;;4994597;28;20424;-78
2021/12/02 06:04:08;;;;;;;2.97;0.63;;;5.70;1.00;;;;;;4994825;28;20178;-77
2021/12/02 06:06:33;;;;;;;2.00;0.60;;;5.60;1.00;;;;;;4994086;28;20483;-77
2021/12/02 06:08:59;;;;;;;0.60;0.50;;;;;;;;;;4994491;28;20804;-77
2021/12/02 06:11:25;;;;;;;0.60;0.60;;;5.60;1.00;;;;;;4994166;28;20321;-75
2021/12/02 06:13:51;;;;;;;2.73;0.70;;;;;;;;;;4986986;28;20865;-74
2021/12/02 06:16:17;;;;;;;0.40;0.40;;;5.60;1.00;;;;;;4991562;28;20200;-74
2021/12/02 06:18:43;;;;;;;0.50;0.50;;;5.60;1.00;;;;;;4993602;28;20523;-75
2021/12/02 06:21:09;;;;;;;7.07;0.73;;;5.60;1.00;;;;;;4993472;28;20192;-75
2021/12/02 06:23:36;;;;;;;3.53;0.60;;;5.60;1.00;;;;;;4994236;28;20417;-75
2021/12/02 06:26:02;;;;;;;1.57;0.60;;;;;;;;;;4994577;28;20182;-78
2021/12/02 06:28:27;;;;;;;0.50;0.47;;;5.60;1.00;;;;;;4994315;28;20421;-77
2021/12/02 06:30:53;;;;;;;0.73;0.47;;;5.60;1.00;;;;;;4994262;28;20456;-79
2021/12/02 06:33:19;;;;;;;0.50;0.50;;;5.60;1.00;;;;;;4993558;28;20213;-77
2021/12/02 06:35:45;;;;;;;0.70;0.63;;;;;;;;;;4992530;28;20182;-77
2021/12/02 06:38:11;;;;;;;1.03;0.43;;;5.70;1.00;;;;;;4993794;28;20651;-77
2021/12/02 06:40:38;;;;;;;1.20;0.50;;;5.70;1.00;;;;;;4994200;28;20914;-75
2021/12/02 06:43:05;;;;;;;1.07;0.70;;;5.70;1.00;;;;;;4993140;28;20460;-75
2021/12/02 06:45:31;;;;;;;0.60;0.60;;;5.70;1.00;;;;;;4993218;28;20444;-75
2021/12/02 06:48:00;;;;;;;1.20;0.77;;;5.70;1.00;;;;;;4993430;28;20938;-74
2021/12/02 06:50:28;;;;;;;1.13;0.60;;;5.60;1.00;;;;;;4993681;28;20209;-74
2021/12/02 06:52:54;;;;;;;0.67;0.60;;;5.60;1.00;;;;;;4992850;28;20520;-75
2021/12/02 06:55:21;;;;;;;0.50;0.50;;;5.60;1.00;;;;;;4997001;28;20421;-78
2021/12/02 06:57:46;;;;;;;0.80;0.70;;;5.60;1.00;;;;;;4993065;28;20417;-79
2021/12/02 07:00:15;;;;;;;0.67;0.50;;;5.60;1.00;;;;;;4993542;28;20625;-78
2021/12/02 07:02:41;;;;;;;0.57;0.57;;;5.70;1.00;;;;;;4993197;28;20424;-77
2021/12/02 07:05:09;;;;;;;2.50;0.60;;;5.60;1.00;;;;;;4993630;28;20896;-78
2021/12/02 07:07:37;;;;;;;0.50;0.50;;;5.60;1.00;;;;;;4992719;28;20925;-78
2021/12/02 07:10:22;;;;;;;4.37;0.70;;;5.60;1.00;;;;;;4993615;28;20530;-75
2021/12/02 07:12:51;;;;;;;2.30;0.80;;;5.60;1.00;;;;;;4991158;28;20946;-75
2021/12/02 07:15:19;;;;;;;2.50;0.70;;;5.60;1.00;;;;;;4991489;28;20955;-74
2021/12/02 07:17:47;;;;;;;3.07;1.10;;;5.70;1.00;;;;;;4991298;28;20460;-75
2021/12/02 07:20:13;;;;;;;1.70;0.77;;;5.70;1.00;;;;;;4993119;28;20420;-74
2021/12/02 07:22:39;;;;;;;3.13;0.73;;;5.70;1.00;;;;;;4992996;28;20825;-75
2021/12/02 07:25:06;;;;;;;1.13;0.67;;;5.60;1.00;;;;;;4993100;28;20479;-75
2021/12/02 07:27:32;;;;;;;2.80;1.30;;;5.60;1.00;;;;;;4992980;28;20460;-75
2021/12/02 07:29:57;;;;;;;1.50;0.53;;;5.60;1.00;;;;;;4992952;28;20492;-75
2021/12/02 07:32:32;;;;;;;4.73;0.97;;;5.60;1.00;;;;;;4992848;28;20948;-75
2021/12/02 07:35:00;;;;;;;0.60;0.60;;;5.70;1.00;;;;;;4982720;28;20649;-75
2021/12/02 07:37:27;;;;;;;17.63;1.00;;;5.60;1.00;;;;;;4992841;28;20417;-74
2021/12/02 07:39:53;;;;;;;0.60;0.60;;;5.60;1.00;;;;;;4990674;28;20461;-77
2021/12/02 07:42:19;;;;;;;0.60;0.60;;;5.60;1.00;;;;;;4993117;28;20461;-78
2021/12/02 07:44:46;;;;;;;1.33;0.70;;;5.60;1.00;;;;;;4992457;28;20436;-78
2021/12/02 07:47:13;;;;;;;7.00;0.90;;;5.60;1.00;;;;;;4992832;28;20420;-78
2021/12/02 07:49:39;;;;;;;1.10;1.00;;;5.60;1.00;;;;;;4992709;28;20499;-78
2021/12/02 07:52:07;;;;;;;1.10;0.90;;;4.10;1.00;;;;;;4992747;28;20421;-78
2021/12/02 07:54:34;;;;;;;0.70;0.70;;;5.70;1.00;;;;;;4993300;28;20656;-78
2021/12/02 07:57:00;;;;;;;6.50;0.90;;;5.70;1.00;;;;;;4995650;28;20428;-78
2021/12/02 07:59:27;;;;;;;6.50;0.73;;;5.70;1.00;;;;;;4993048;28;20842;-78
2021/12/02 08:01:59;;;;;;;0.60;0.53;;;5.70;1.00;;;;;;4993127;28;20931;-78
2021/12/02 08:04:25;;;;;;;4.00;0.90;;;5.70;1.00;;;;;;4992673;28;20424;-78
2021/12/02 08:06:51;;;;;;;5.73;1.07;;;5.70;1.00;;;;;;4992792;28;20938;-78
2021/12/02 08:09:17;;;;;;;1.47;1.00;;;;;;;;;;4991956;28;20637;-78
2021/12/02 08:11:42;;;;;;;1.43;0.90;;;5.60;1.00;;;;;;4993697;28;20178;-78
2021/12/02 08:14:15;;;;;;;4.27;0.70;;;5.60;1.00;;;;;;4992585;28;20833;-78
2021/12/02 08:16:41;;;;;;;5.30;1.03;;;5.50;1.00;;;;;;4992825;28;20220;-78
2021/12/02 08:19:07;;;;;;;0.60;0.60;;;5.60;1.00;;;;;;4992144;28;20437;-78
2021/12/02 08:21:33;;;;;;;2.37;0.90;;;;;;;;;;4993025;28;20495;-78
2021/12/02 08:23:58;;;;;;;2.40;0.93;;;;;;;;;;4992930;28;20285;-78
2021/12/02 08:26:24;;;;;;;1.03;0.70;;;5.70;1.00;;;;;;4993210;28;20416;-75
2021/12/02 08:28:50;;;;;;;4.23;0.90;;;5.70;1.00;;;;;;4992459;28;20784;-75
2021/12/02 08:31:16;;;;;;;0.80;0.70;;;;;;;;;;4992951;28;20174;-75
2021/12/02 08:33:42;;;;;;;1.13;1.00;;;5.80;1.00;;;;;;4992995;28;20174;-75
2021/12/02 08:36:09;;;;;;;5.70;1.00;;;5.80;1.00;;;;;;4992552;28;20424;-75
2021/12/02 08:38:36;;;;;;;1.03;0.80;;;5.80;1.00;;;;;;4992355;28;20700;-75
2021/12/02 08:41:02;;;;;;;1.80;0.80;;;5.80;1.00;;;;;;4989282;28;20925;-78
2021/12/02 08:43:30;;;;;;;1.27;0.90;;;5.90;1.00;;;;;;4995910;28;20439;-78
2021/12/02 08:45:56;;;;;;;0.70;0.70;;;5.90;1.00;;;;;;4994624;28;20420;-78
2021/12/02 08:48:22;;;;;;;0.73;0.73;;;;;;;;;;4973581;28;20531;-78
2021/12/02 08:50:48;;;;;;;0.80;0.80;;;6.00;1.00;;;;;;4979679;28;20487;-78
2021/12/02 08:53:14;;;;;;;0.80;0.70;;;6.00;1.00;;;;;;4994351;28;20448;-78
2021/12/02 08:55:40;;;;;;;1.13;0.63;;;6.10;1.00;;;;;;4999603;28;20420;-77
2021/12/02 08:58:09;;;;;;;0.60;0.60;;;8.60;1.00;;;;;;4996107;28;20424;-77
2021/12/02 09:00:36;;;;;;;0.83;0.83;;;6.10;1.00;;;;;;4988846;28;20479;-78
2021/12/02 09:03:06;;;;;;;4.63;1.13;;;6.10;1.00;;;;;;4994924;28;20516;-78
2021/12/02 09:05:32;;;;;;;1.17;0.80;;;6.10;1.00;;;;;;4993818;28;20424;-78
2021/12/02 09:07:58;;;;;;;1.37;0.70;;;6.20;1.00;;;;;;4994842;28;20447;-82
2021/12/02 09:10:25;;;;;;;1.53;0.97;;;6.30;1.00;;;;;;4995524;28;20240;-79
2021/12/02 09:12:51;;;;;;;2.00;1.00;;;6.30;1.00;;;;;;4996396;28;20918;-79
2021/12/02 09:15:17;;;;;;;0.60;0.60;;;6.40;1.00;;;;;;4995109;28;20467;-77
2021/12/02 09:17:43;;;;;;;0.83;0.80;;;6.50;1.00;;;;;;4993799;28;20178;-78
2021/12/02 09:20:11;;;;;;;1.47;0.93;;;6.40;1.00;;;;;;4983600;28;20465;-78
2021/12/02 09:22:37;;;;;;;4.00;0.93;;;6.50;1.00;;;;;;4995361;28;20419;-78
2021/12/02 09:25:04;;;;;;;0.63;0.63;;;6.60;1.00;;;;;;4994672;28;20516;-77
2021/12/02 09:27:30;;;;;;;7.30;0.90;;;6.70;1.00;;;;;;4995730;28;20460;-74
2021/12/02 09:29:56;;;;;;;0.80;0.80;;;6.70;1.00;;;;;;4994508;28;20417;-75
2021/12/02 09:32:22;;;;;;;1.00;0.90;;;6.70;1.00;;;;;;4995415;28;20413;-75
2021/12/02 09:34:47;;;;;;;0.87;0.87;;;6.70;1.00;;;;;;4995136;28;20200;-78
2021/12/02 09:37:15;;;;;;;4.77;1.30;;;6.70;1.00;;;;;;4994927;28;20531;-74
2021/12/02 09:39:41;;;;;;;1.43;1.10;;;6.80;1.00;;;;;;4994918;28;20208;-74
2021/12/02 09:42:10;;;;;;;1.40;1.30;;;6.80;1.00;;;;;;4995342;28;20421;-75
2021/12/02 09:44:37;;;;;;;1.50;0.93;;;6.80;1.00;;;;;;4994742;28;20177;-74
2021/12/02 09:47:03;;;;;;;1.00;1.00;;;6.80;1.00;;;;;;4994443;28;20428;-74
2021/12/02 09:49:30;;;;;;;1.30;1.20;;;6.80;1.00;;;;;;4992600;28;20465;-74
2021/12/02 09:52:02;;;;;;;1.23;1.00;;;7.10;1.00;;;;;;4991617;28;20170;-74
2021/12/02 09:54:45;;;;;;;1.07;1.07;;;6.80;1.00;;;;;;4994570;28;20939;-75
2021/12/02 09:57:14;;;;;;;3.13;1.20;;;6.80;1.00;;;;;;4995743;28;20913;-75
2021/12/02 10:02:12;;;;;;;0.90;0.90;;;6.70;1.00;;;;;;4994773;28;20429;-74
2021/12/02 10:04:57;;;;;;;1.40;0.87;;;6.70;1.00;;;;;;4994262;28;20428;-74
2021/12/02 10:07:35;;;;;;;1.43;1.00;;;6.70;1.00;;;;;;4994708;28;20774;-76
2021/12/02 10:10:17;;;;;;;1.57;1.10;;;6.60;1.00;;;;;;4993942;28;20815;-74
2021/12/02 10:13:17;;;;;;;1.30;1.00;;;6.50;1.00;;;;;;4994440;28;20946;-78
2021/12/02 10:15:52;;;;;;;2.20;1.07;;;6.50;1.00;;;;;;4990438;28;20579;-78
2021/12/02 10:18:21;;;;;;;3.80;1.87;;;6.40;1.00;;;;;;4994226;28;20946;-78
2021/12/02 10:20:50;;;;;;;0.90;0.90;;;6.40;1.00;;;;;;4982739;28;20571;-78
2021/12/02 10:23:27;;;;;;;1.10;1.00;;;6.40;1.00;;;;;;4993604;28;20572;-78
2021/12/02 10:25:58;;;;;;;2.13;1.00;;;6.40;1.00;;;;;;4994603;28;20774;-78
2021/12/02 10:28:27;;;;;;;0.90;0.90;;;6.30;1.00;;;;;;4994663;28;20818;-74
2021/12/02 10:30:58;;;;;;;2.60;0.70;;;6.30;1.00;;;;;;4994165;28;20463;-74
2021/12/02 10:33:38;;;;;;;2.00;0.87;;;6.20;1.00;;;;;;4993644;28;20508;-74
2021/12/02 10:36:07;;;;;;;1.03;0.87;;;6.20;1.00;;;;;;4994177;28;20412;-74
2021/12/02 10:38:44;;;;;;;2.93;1.00;;;6.10;1.00;;;;;;4994128;28;20423;-74
2021/12/02 10:41:21;;;;;;;0.90;0.90;;;5.80;1.00;;;;;;4992983;28;20451;-74
2021/12/02 10:44:05;;;;;;;1.10;0.90;;;5.80;1.00;;;;;;4993618;28;20431;-78
2021/12/02 10:46:31;;;;;;;0.77;0.77;;;5.70;1.00;;;;;;4992293;28;20429;-79
2021/12/02 10:48:57;;;;;;;2.33;0.93;;;5.70;1.00;;;;;;4992314;28;20516;-78
2021/12/02 10:51:44;;;;;;;3.53;0.80;;;5.60;1.00;;;;;;4993060;28;20515;-78
2021/12/02 10:54:14;;;;;;;2.80;1.20;;;5.70;1.00;;;;;;4993048;28;20664;-78
2021/12/02 10:56:50;;;;;;;3.07;1.20;;;6.00;1.00;;;;;;4997618;28;20408;-78
2021/12/02 10:59:45;;;;;;;1.13;1.03;;;6.00;1.00;;;;;;4994095;28;20519;-78
2021/12/02 11:02:33;;;;;;;1.40;1.30;;;6.60;1.00;;;;;;4936525;29;20780;-80
2021/12/02 11:05:21;;;;;;;1.43;1.10;;;6.80;1.00;;;;;;4929878;29;20446;-80
2021/12/02 11:08:07;;;;;;;1.13;1.03;;;7.00;1.00;;;;;;4939720;29;20493;-82
2021/12/02 11:10:40;;;;;;;1.00;1.00;;;6.90;1.00;;;;;;4933849;29;20498;-79
2021/12/02 11:13:08;;;;;;;1.47;1.37;;;6.90;1.00;;;;;;4942749;29;20444;-73
2021/12/02 11:15:36;;;;;;;1.07;1.07;;;6.80;1.00;;;;;;4928209;29;20928;-73
2021/12/02 11:18:07;;;;;;;1.10;0.77;;;6.70;1.00;;;;;;4930828;29;20427;-73
2021/12/02 11:20:39;;;;;;;2.13;0.80;;;6.70;1.00;;;;;;4932446;29;20423;-73
2021/12/02 11:23:31;;;;;;;0.80;0.80;;;6.60;1.00;;;;;;4931949;29;20435;-73
2021/12/02 11:26:07;;;;;;;1.20;1.03;;;6.60;1.00;;;;;;4934231;29;20467;-73
2021/12/02 11:28:36;;;;;;;0.83;0.80;;;6.60;1.00;;;;;;4933604;29;20926;-80
2021/12/02 11:31:15;;;;;;;6.30;1.00;;;6.50;1.00;;;;;;4933198;29;20466;-79
2021/12/02 11:33:42;;;;;;;1.00;0.63;;;6.50;1.00;;;;;;4928497;29;20448;-79
2021/12/02 11:36:30;;;;;;;0.70;0.70;;;6.50;1.00;;;;;;4946292;29;20440;-79
2021/12/02 11:38:59;;;;;;;1.23;0.77;;;6.50;1.00;;;;;;4966571;28;20431;-79
2021/12/02 11:41:27;;;;;;;4.30;0.80;;;6.50;1.00;;;;;;4993261;28;20859;-79
2021/12/02 11:43:54;;;;;;;0.73;0.70;;;6.40;1.00;;;;;;4992831;28;20456;-73
2021/12/02 11:46:19;;;;;;;0.70;0.70;;;6.40;1.00;;;;;;4993159;28;20440;-73
2021/12/02 11:48:46;;;;;;;4.17;0.70;;;6.40;1.00;;;;;;4992478;28;20993;-73
2021/12/02 11:51:17;;;;;;;1.03;0.93;;;6.40;1.00;;;;;;4993029;28;20479;-74
2021/12/02 11:53:44;;;;;;;1.30;0.83;;;6.40;1.00;;;;;;4992372;28;20436;-74
2021/12/02 11:56:13;;;;;;;4.10;0.80;;;6.50;1.00;;;;;;4995991;28;20511;-73
2021/12/02 11:58:39;;;;;;;1.20;1.10;;;6.70;1.00;;;;;;4993028;28;20428;-74
2021/12/02 12:01:08;;;;;;;0.77;0.77;;;6.90;1.00;;;;;;4989381;28;20947;-73
2021/12/02 12:03:42;;;;;;;2.90;1.00;;;7.00;1.00;;;;;;4988459;28;20427;-73
2021/12/02 12:06:22;;;;;;;0.90;0.90;;;7.00;1.00;;;;;;4992995;28;20420;-74
2021/12/02 12:08:50;;;;;;;0.60;0.60;;;6.90;1.00;;;;;;4992309;28;20460;-73
2021/12/02 12:11:25;;;;;;;1.00;1.00;;;7.00;1.00;;;;;;4992084;28;20464;-74
2021/12/02 12:14:02;;;;;;;1.50;0.90;;;6.90;1.00;;;;;;4992185;28;20463;-73
2021/12/02 12:16:30;;;;;;;0.83;0.83;;;6.90;1.00;;;;;;4992585;28;20966;-73
2021/12/02 12:19:13;;;;;;;1.43;0.77;;;6.90;1.00;;;;;;4996463;28;20806;-73
2021/12/02 12:21:41;;;;;;;0.67;0.67;;;6.80;1.00;;;;;;5008915;28;20474;-73
2021/12/02 12:24:08;;;;;;;7.83;1.00;;;6.50;1.00;;;;;;4996482;28;20452;-74
2021/12/02 12:26:37;;;;;;;0.83;0.60;;;6.90;1.00;;;;;;4996393;28;20412;-74
2021/12/02 12:31:57;;;;;;;3.17;0.80;;;6.50;1.00;;;;;;4996529;28;20429;-79
2021/12/02 12:40:29;;;;;;;1.50;0.73;;;6.60;1.00;;;;;;4993431;28;20938;-79
2021/12/02 12:42:58;;;;;;;1.90;1.00;;;6.80;1.00;;;;;;4985838;28;20475;-77
2021/12/02 12:45:30;;;;;;;13.33;0.90;;;7.00;1.00;;;;;;4973242;28;20440;-77
2021/12/02 12:48:01;;;;;;;1.67;1.00;;;6.90;1.00;;;;;;4992556;28;20423;-78
2021/12/02 12:50:38;;;;;;;3.30;1.03;;;7.00;1.00;;;;;;4995677;28;20456;-79
2021/12/02 12:53:03;;;;;;;1.07;0.97;;;7.20;1.00;;;;;;4984392;28;20940;-78
2021/12/02 12:55:53;;;;;;;1.60;1.30;;;7.10;1.00;;;;;;4985132;28;20444;-79
2021/12/02 12:58:26;;;;;;;1.20;1.10;;;7.10;1.00;;;;;;4973537;28;20535;-78
2021/12/02 13:01:17;;;;;;;1.27;1.17;;;7.00;1.00;;;;;;4994949;28;20831;-78
2021/12/02 13:03:45;;;;;;;1.00;1.00;;;7.10;1.00;;;;;;4992654;28;20415;-78
2021/12/02 13:06:21;;;;;;;2.17;1.13;;;7.10;1.00;;;;;;4995421;28;20429;-78
2021/12/02 13:08:54;;;;;;;1.60;1.10;;;7.00;1.00;;;;;;4995609;28;20412;-78
2021/12/02 13:11:26;;;;;;;1.30;1.03;;;7.00;1.00;;;;;;4992888;28;20469;-78
2021/12/02 13:13:54;;;;;;;1.00;1.00;;;6.90;1.00;;;;;;4993219;28;20436;-72
2021/12/02 13:16:20;;;;;;;1.40;1.30;;;6.90;1.00;;;;;;4989104;28;20429;-72
2021/12/02 13:18:51;;;;;;;2.20;1.27;;;6.70;1.00;;;;;;4995352;28;20429;-71
2021/12/02 13:21:30;;;;;;;1.10;1.10;;;6.60;1.00;;;;;;4995242;28;20193;-71
2021/12/02 13:24:06;;;;;;;1.13;1.10;;;6.50;1.00;;;;;;4995192;28;20432;-71
2021/12/02 13:26:36;;;;;;;1.40;1.30;;;6.50;1.00;;;;;;4992361;28;20891;-74
2021/12/02 13:29:22;;;;;;;1.00;0.90;;;6.50;1.00;;;;;;4995850;28;20515;-74
2021/12/02 13:31:48;;;;;;;1.43;1.10;;;;;;;;;;4983613;28;20853;-73
2021/12/02 13:34:16;;;;;;;3.60;1.20;;;6.40;1.00;;;;;;4996166;28;20492;-72
2021/12/02 13:36:44;;;;;;;1.10;1.10;;;6.30;1.00;;;;;;4995758;28;20429;-75
2021/12/02 13:39:21;;;;;;;1.23;1.13;;;6.30;1.00;;;;;;4996004;28;20575;-73
2021/12/02 13:42:02;;;;;;;5.13;1.27;;;6.40;1.00;;;;;;4994315;28;20480;-73
2021/12/02 13:44:50;;;;;;;2.70;1.30;;;6.50;1.00;;;;;;4983422;28;20421;-76
2021/12/02 13:47:34;;;;;;;1.20;1.20;;;6.60;1.00;;;;;;5009870;28;20440;-76
2021/12/02 13:50:06;;;;;;;2.53;2.33;;;6.40;1.00;;;;;;4992940;28;20460;-76
2021/12/02 13:52:51;;;;;;;1.17;1.17;;;6.50;1.00;;;;;;4995803;28;20475;-76
2021/12/02 13:55:34;;;;;;;1.53;1.43;;;;;;;;;;4995736;28;20452;-77
2021/12/02 13:58:36;;;;;;;1.10;1.07;;;6.30;1.00;;;;;;5002283;28;20758;-76
2021/12/02 14:01:04;;;;;;;6.27;1.10;;;6.10;1.00;;;;;;4995859;28;20413;-77
2021/12/02 14:03:39;;;;;;;1.50;1.00;;;5.90;1.00;;;;;;4995502;28;20417;-78